sensor_id;sensor_type;location;lat;lon;timestamp;P1;durP1;ratioP1;P2;durP2;ratioP2
21613;SDS011;10969;49.550;25.564;2022-09-01T00:01:03;2.35;;;1.60;;
21613;SDS011;10969;49.550;25.564;2022-09-01T00:03:32;2.30;;;1.13;;
21613;SDS011;10969;49.550;25.564;2022-09-01T00:05:59;2.22;;;1.20;;
21613;SDS011;10969;49.550;25.564;2022-09-01T00:08:25;1.10;;;1.05;;
21613;SDS011;10969;49.550;25.564;2022-09-01T00:10:51;2.10;;;1.13;;
21613;SDS011;10969;49.550;25.564;2022-09-01T00:13:17;5.53;;;1.25;;
21613;SDS011;10969;49.550;25.564;2022-09-01T00:15:43;1.63;;;0.93;;
21613;SDS011;10969;49.550;25.564;2022-09-01T00:18:09;1.80;;;1.30;;
21613;SDS011;10969;49.550;25.564;2022-09-01T00:20:35;1.08;;;0.80;;
21613;SDS011;10969;49.550;25.564;2022-09-01T00:23:01;3.08;;;1.23;;
21613;SDS011;10969;49.550;25.564;2022-09-01T00:25:27;3.83;;;1.02;;
21613;SDS011;10969;49.550;25.564;2022-09-01T00:27:53;2.40;;;1.20;;
21613;SDS011;10969;49.550;25.564;2022-09-01T00:30:23;2.00;;;1.33;;
21613;SDS011;10969;49.550;25.564;2022-09-01T00:32:49;3.92;;;1.38;;
21613;SDS011;10969;49.550;25.564;2022-09-01T00:35:16;6.68;;;2.08;;
21613;SDS011;10969;49.550;25.564;2022-09-01T00:37:42;1.13;;;1.02;;
21613;SDS011;10969;49.550;25.564;2022-09-01T00:40:09;4.10;;;1.73;;
21613;SDS011;10969;49.550;25.564;2022-09-01T00:42:36;1.77;;;1.30;;
21613;SDS011;10969;49.550;25.564;2022-09-01T00:45:03;1.02;;;1.00;;
21613;SDS011;10969;49.550;25.564;2022-09-01T00:47:30;1.20;;;1.05;;
21613;SDS011;10969;49.550;25.564;2022-09-01T00:49:56;4.25;;;1.42;;
21613;SDS011;10969;49.550;25.564;2022-09-01T00:52:28;4.38;;;1.80;;
21613;SDS011;10969;49.550;25.564;2022-09-01T00:54:56;1.92;;;1.27;;
21613;SDS011;10969;49.550;25.564;2022-09-01T00:57:22;5.93;;;1.08;;
21613;SDS011;10969;49.550;25.564;2022-09-01T00:59:52;1.27;;;1.05;;
21613;SDS011;10969;49.550;25.564;2022-09-01T01:02:19;4.10;;;1.10;;
21613;SDS011;10969;49.550;25.564;2022-09-01T01:04:46;1.48;;;0.85;;
21613;SDS011;10969;49.550;25.564;2022-09-01T01:07:12;1.08;;;1.08;;
21613;SDS011;10969;49.550;25.564;2022-09-01T01:09:40;2.35;;;1.20;;
21613;SDS011;10969;49.550;25.564;2022-09-01T01:12:07;1.10;;;1.10;;
21613;SDS011;10969;49.550;25.564;2022-09-01T01:14:37;1.13;;;1.05;;
21613;SDS011;10969;49.550;25.564;2022-09-01T01:17:04;2.28;;;1.15;;
21613;SDS011;10969;49.550;25.564;2022-09-01T01:22:59;1.02;;;0.95;;
21613;SDS011;10969;49.550;25.564;2022-09-01T01:25:23;1.23;;;0.85;;
21613;SDS011;10969;49.550;25.564;2022-09-01T01:27:49;1.58;;;0.90;;
21613;SDS011;10969;49.550;25.564;2022-09-01T01:30:16;1.75;;;0.80;;
21613;SDS011;10969;49.550;25.564;2022-09-01T01:32:43;1.75;;;0.70;;
21613;SDS011;10969;49.550;25.564;2022-09-01T01:35:11;0.60;;;0.52;;
21613;SDS011;10969;49.550;25.564;2022-09-01T01:37:39;5.43;;;1.52;;
21613;SDS011;10969;49.550;25.564;2022-09-01T01:40:09;0.70;;;0.60;;
21613;SDS011;10969;49.550;25.564;2022-09-01T01:42:41;2.05;;;1.40;;
21613;SDS011;10969;49.550;25.564;2022-09-01T01:45:08;1.17;;;1.08;;
21613;SDS011;10969;49.550;25.564;2022-09-01T01:47:36;3.92;;;0.90;;
21613;SDS011;10969;49.550;25.564;2022-09-01T01:50:02;3.58;;;0.90;;
21613;SDS011;10969;49.550;25.564;2022-09-01T01:52:33;3.53;;;1.80;;
21613;SDS011;10969;49.550;25.564;2022-09-01T01:54:59;0.82;;;0.73;;
21613;SDS011;10969;49.550;25.564;2022-09-01T01:57:25;2.75;;;0.95;;
21613;SDS011;10969;49.550;25.564;2022-09-01T01:59:55;1.95;;;1.50;;
21613;SDS011;10969;49.550;25.564;2022-09-01T02:02:21;1.50;;;1.27;;
21613;SDS011;10969;49.550;25.564;2022-09-01T02:04:47;1.77;;;1.63;;
21613;SDS011;10969;49.550;25.564;2022-09-01T02:07:13;3.10;;;0.80;;
21613;SDS011;10969;49.550;25.564;2022-09-01T02:09:40;1.85;;;1.73;;
21613;SDS011;10969;49.550;25.564;2022-09-01T02:12:09;0.73;;;0.73;;
21613;SDS011;10969;49.550;25.564;2022-09-01T02:14:36;1.42;;;0.60;;
21613;SDS011;10969;49.550;25.564;2022-09-01T02:17:02;1.00;;;0.90;;
21613;SDS011;10969;49.550;25.564;2022-09-01T02:19:31;1.98;;;1.42;;
21613;SDS011;10969;49.550;25.564;2022-09-01T02:21:57;3.60;;;1.67;;
21613;SDS011;10969;49.550;25.564;2022-09-01T02:24:24;2.83;;;2.05;;
21613;SDS011;10969;49.550;25.564;2022-09-01T02:26:52;0.95;;;0.82;;
21613;SDS011;10969;49.550;25.564;2022-09-01T02:29:20;0.90;;;0.73;;
21613;SDS011;10969;49.550;25.564;2022-09-01T02:31:49;1.23;;;0.63;;
21613;SDS011;10969;49.550;25.564;2022-09-01T02:34:16;5.55;;;1.65;;
21613;SDS011;10969;49.550;25.564;2022-09-01T02:36:43;6.75;;;1.33;;
21613;SDS011;10969;49.550;25.564;2022-09-01T02:39:17;3.83;;;1.42;;
21613;SDS011;10969;49.550;25.564;2022-09-01T02:41:44;1.85;;;1.75;;
21613;SDS011;10969;49.550;25.564;2022-09-01T02:44:10;0.85;;;0.75;;
21613;SDS011;10969;49.550;25.564;2022-09-01T02:46:37;4.63;;;1.05;;
21613;SDS011;10969;49.550;25.564;2022-09-01T02:49:06;0.45;;;0.45;;
21613;SDS011;10969;49.550;25.564;2022-09-01T02:51:39;1.05;;;0.95;;
21613;SDS011;10969;49.550;25.564;2022-09-01T02:54:05;1.48;;;1.15;;
21613;SDS011;10969;49.550;25.564;2022-09-01T02:56:31;0.90;;;0.88;;
21613;SDS011;10969;49.550;25.564;2022-09-01T02:58:58;1.25;;;1.15;;
21613;SDS011;10969;49.550;25.564;2022-09-01T03:01:27;1.35;;;1.25;;
21613;SDS011;10969;49.550;25.564;2022-09-01T03:03:55;2.90;;;0.95;;
21613;SDS011;10969;49.550;25.564;2022-09-01T03:06:22;0.55;;;0.55;;
21613;SDS011;10969;49.550;25.564;2022-09-01T03:08:48;3.70;;;1.10;;
21613;SDS011;10969;49.550;25.564;2022-09-01T03:11:14;1.35;;;1.23;;
21613;SDS011;10969;49.550;25.564;2022-09-01T03:13:41;0.77;;;0.77;;
21613;SDS011;10969;49.550;25.564;2022-09-01T03:16:07;3.28;;;1.38;;
21613;SDS011;10969;49.550;25.564;2022-09-01T03:18:34;3.85;;;1.20;;
21613;SDS011;10969;49.550;25.564;2022-09-01T03:21:02;0.85;;;0.60;;
21613;SDS011;10969;49.550;25.564;2022-09-01T03:23:28;2.35;;;1.42;;
21613;SDS011;10969;49.550;25.564;2022-09-01T03:25:59;2.78;;;1.33;;
21613;SDS011;10969;49.550;25.564;2022-09-01T03:28:25;0.80;;;0.70;;
21613;SDS011;10969;49.550;25.564;2022-09-01T03:30:52;0.93;;;0.93;;
21613;SDS011;10969;49.550;25.564;2022-09-01T03:33:19;2.97;;;0.77;;
21613;SDS011;10969;49.550;25.564;2022-09-01T03:35:46;1.35;;;0.95;;
21613;SDS011;10969;49.550;25.564;2022-09-01T03:38:13;1.00;;;0.88;;
21613;SDS011;10969;49.550;25.564;2022-09-01T03:40:45;2.65;;;1.08;;
21613;SDS011;10969;49.550;25.564;2022-09-01T03:43:11;1.45;;;0.63;;
21613;SDS011;10969;49.550;25.564;2022-09-01T03:45:38;13.90;;;0.80;;
21613;SDS011;10969;49.550;25.564;2022-09-01T03:48:05;0.80;;;0.73;;
21613;SDS011;10969;49.550;25.564;2022-09-01T03:50:33;2.35;;;1.40;;
21613;SDS011;10969;49.550;25.564;2022-09-01T03:53:02;2.10;;;1.42;;
21613;SDS011;10969;49.550;25.564;2022-09-01T03:55:30;1.63;;;1.25;;
21613;SDS011;10969;49.550;25.564;2022-09-01T03:58:02;3.28;;;0.82;;
21613;SDS011;10969;49.550;25.564;2022-09-01T04:00:30;1.00;;;1.00;;
21613;SDS011;10969;49.550;25.564;2022-09-01T04:02:59;1.45;;;1.10;;
21613;SDS011;10969;49.550;25.564;2022-09-01T04:05:27;1.33;;;1.23;;
21613;SDS011;10969;49.550;25.564;2022-09-01T04:07:54;1.35;;;1.25;;
21613;SDS011;10969;49.550;25.564;2022-09-01T04:10:21;1.88;;;1.25;;
21613;SDS011;10969;49.550;25.564;2022-09-01T04:12:47;1.38;;;1.27;;
21613;SDS011;10969;49.550;25.564;2022-09-01T04:15:14;1.63;;;1.52;;
21613;SDS011;10969;49.550;25.564;2022-09-01T04:17:44;2.63;;;1.52;;
21613;SDS011;10969;49.550;25.564;2022-09-01T04:20:34;1.45;;;1.13;;
21613;SDS011;10969;49.550;25.564;2022-09-01T04:23:12;1.88;;;1.13;;
21613;SDS011;10969;49.550;25.564;2022-09-01T04:25:41;1.20;;;1.00;;
21613;SDS011;10969;49.550;25.564;2022-09-01T04:28:07;3.03;;;1.63;;
21613;SDS011;10969;49.550;25.564;2022-09-01T04:30:41;0.75;;;0.55;;
21613;SDS011;10969;49.550;25.564;2022-09-01T04:33:07;5.15;;;1.73;;
21613;SDS011;10969;49.550;25.564;2022-09-01T04:35:38;0.70;;;0.70;;
21613;SDS011;10969;49.550;25.564;2022-09-01T04:38:04;1.42;;;1.08;;
21613;SDS011;10969;49.550;25.564;2022-09-01T04:40:32;0.88;;;0.70;;
21613;SDS011;10969;49.550;25.564;2022-09-01T04:43:03;0.60;;;0.60;;
21613;SDS011;10969;49.550;25.564;2022-09-01T04:45:29;2.10;;;1.63;;
21613;SDS011;10969;49.550;25.564;2022-09-01T04:47:55;0.98;;;0.88;;
21613;SDS011;10969;49.550;25.564;2022-09-01T04:50:23;1.13;;;0.88;;
21613;SDS011;10969;49.550;25.564;2022-09-01T04:52:50;2.28;;;1.30;;
21613;SDS011;10969;49.550;25.564;2022-09-01T04:55:18;1.30;;;1.20;;
21613;SDS011;10969;49.550;25.564;2022-09-01T04:57:45;1.23;;;0.85;;
21613;SDS011;10969;49.550;25.564;2022-09-01T05:11:46;1.90;;;1.42;;
21613;SDS011;10969;49.550;25.564;2022-09-01T05:14:14;3.00;;;1.85;;
21613;SDS011;10969;49.550;25.564;2022-09-01T05:16:43;2.15;;;1.67;;
21613;SDS011;10969;49.550;25.564;2022-09-01T05:19:10;2.28;;;1.63;;
21613;SDS011;10969;49.550;25.564;2022-09-01T05:21:42;7.80;;;2.05;;
21613;SDS011;10969;49.550;25.564;2022-09-01T05:24:10;1.02;;;0.95;;
21613;SDS011;10969;49.550;25.564;2022-09-01T05:26:36;3.42;;;2.03;;
21613;SDS011;10969;49.550;25.564;2022-09-01T05:29:05;3.65;;;1.33;;
21613;SDS011;10969;49.550;25.564;2022-09-01T05:31:34;3.17;;;1.30;;
21613;SDS011;10969;49.550;25.564;2022-09-01T05:34:01;1.65;;;1.15;;
21613;SDS011;10969;49.550;25.564;2022-09-01T05:36:27;2.97;;;1.48;;
21613;SDS011;10969;49.550;25.564;2022-09-01T05:38:57;2.38;;;1.45;;
21613;SDS011;10969;49.550;25.564;2022-09-01T05:41:24;1.20;;;1.10;;
21613;SDS011;10969;49.550;25.564;2022-09-01T05:43:50;2.40;;;1.42;;
21613;SDS011;10969;49.550;25.564;2022-09-01T05:46:22;2.53;;;1.10;;
21613;SDS011;10969;49.550;25.564;2022-09-01T05:48:51;1.55;;;0.90;;
21613;SDS011;10969;49.550;25.564;2022-09-01T05:51:18;1.77;;;1.50;;
21613;SDS011;10969;49.550;25.564;2022-09-01T05:53:46;2.22;;;1.17;;
21613;SDS011;10969;49.550;25.564;2022-09-01T05:56:16;1.95;;;1.85;;
21613;SDS011;10969;49.550;25.564;2022-09-01T05:58:43;3.72;;;1.50;;
21613;SDS011;10969;49.550;25.564;2022-09-01T06:01:14;2.00;;;1.38;;
21613;SDS011;10969;49.550;25.564;2022-09-01T06:03:40;3.72;;;1.92;;
21613;SDS011;10969;49.550;25.564;2022-09-01T06:06:08;1.40;;;1.25;;
21613;SDS011;10969;49.550;25.564;2022-09-01T06:08:36;3.30;;;1.70;;
21613;SDS011;10969;49.550;25.564;2022-09-01T06:11:02;1.85;;;1.52;;
21613;SDS011;10969;49.550;25.564;2022-09-01T06:13:36;1.35;;;1.25;;
21613;SDS011;10969;49.550;25.564;2022-09-01T06:16:06;2.15;;;0.98;;
21613;SDS011;10969;49.550;25.564;2022-09-01T06:18:33;1.77;;;1.00;;
21613;SDS011;10969;49.550;25.564;2022-09-01T06:21:01;1.45;;;1.35;;
21613;SDS011;10969;49.550;25.564;2022-09-01T06:23:28;2.20;;;1.35;;
21613;SDS011;10969;49.550;25.564;2022-09-01T06:25:54;0.75;;;0.75;;
21613;SDS011;10969;49.550;25.564;2022-09-01T06:28:20;4.90;;;1.35;;
21613;SDS011;10969;49.550;25.564;2022-09-01T06:30:48;3.55;;;1.73;;
21613;SDS011;10969;49.550;25.564;2022-09-01T06:33:15;2.47;;;1.88;;
21613;SDS011;10969;49.550;25.564;2022-09-01T06:35:43;3.53;;;1.80;;
21613;SDS011;10969;49.550;25.564;2022-09-01T06:38:11;2.72;;;1.42;;
21613;SDS011;10969;49.550;25.564;2022-09-01T06:40:39;1.30;;;1.17;;
21613;SDS011;10969;49.550;25.564;2022-09-01T06:43:05;6.20;;;1.30;;
21613;SDS011;10969;49.550;25.564;2022-09-01T06:45:32;2.17;;;1.52;;
21613;SDS011;10969;49.550;25.564;2022-09-01T06:47:59;0.93;;;0.93;;
21613;SDS011;10969;49.550;25.564;2022-09-01T06:50:25;2.90;;;1.63;;
21613;SDS011;10969;49.550;25.564;2022-09-01T06:52:52;1.63;;;0.98;;
21613;SDS011;10969;49.550;25.564;2022-09-01T06:55:25;6.80;;;1.98;;
21613;SDS011;10969;49.550;25.564;2022-09-01T06:57:56;1.10;;;1.10;;
21613;SDS011;10969;49.550;25.564;2022-09-01T07:00:23;3.88;;;1.27;;
21613;SDS011;10969;49.550;25.564;2022-09-01T07:02:54;3.78;;;1.48;;
21613;SDS011;10969;49.550;25.564;2022-09-01T07:05:21;1.15;;;1.08;;
21613;SDS011;10969;49.550;25.564;2022-09-01T07:07:47;1.42;;;1.10;;
21613;SDS011;10969;49.550;25.564;2022-09-01T07:10:15;2.00;;;1.00;;
21613;SDS011;10969;49.550;25.564;2022-09-01T07:12:44;1.33;;;1.13;;
21613;SDS011;10969;49.550;25.564;2022-09-01T07:15:12;1.05;;;1.05;;
21613;SDS011;10969;49.550;25.564;2022-09-01T07:17:46;1.90;;;1.17;;
21613;SDS011;10969;49.550;25.564;2022-09-01T07:20:14;1.25;;;1.10;;
21613;SDS011;10969;49.550;25.564;2022-09-01T07:22:40;5.07;;;1.52;;
21613;SDS011;10969;49.550;25.564;2022-09-01T07:25:07;2.20;;;1.05;;
21613;SDS011;10969;49.550;25.564;2022-09-01T07:27:36;3.13;;;1.45;;
21613;SDS011;10969;49.550;25.564;2022-09-01T07:30:03;2.60;;;1.23;;
21613;SDS011;10969;49.550;25.564;2022-09-01T07:32:34;0.88;;;0.73;;
21613;SDS011;10969;49.550;25.564;2022-09-01T07:35:01;1.08;;;0.65;;
21613;SDS011;10969;49.550;25.564;2022-09-01T07:37:28;2.03;;;0.77;;
21613;SDS011;10969;49.550;25.564;2022-09-01T07:39:56;4.38;;;1.23;;
21613;SDS011;10969;49.550;25.564;2022-09-01T07:42:22;1.88;;;1.40;;
21613;SDS011;10969;49.550;25.564;2022-09-01T07:44:48;1.95;;;0.75;;
21613;SDS011;10969;49.550;25.564;2022-09-01T07:47:15;1.58;;;0.88;;
21613;SDS011;10969;49.550;25.564;2022-09-01T07:49:41;1.05;;;0.68;;
21613;SDS011;10969;49.550;25.564;2022-09-01T07:52:08;1.08;;;0.98;;
21613;SDS011;10969;49.550;25.564;2022-09-01T07:54:34;0.95;;;0.68;;
21613;SDS011;10969;49.550;25.564;2022-09-01T07:57:01;0.40;;;0.40;;
21613;SDS011;10969;49.550;25.564;2022-09-01T07:59:27;0.60;;;0.60;;
21613;SDS011;10969;49.550;25.564;2022-09-01T08:01:55;6.60;;;0.90;;
21613;SDS011;10969;49.550;25.564;2022-09-01T08:04:21;1.98;;;1.17;;
21613;SDS011;10969;49.550;25.564;2022-09-01T08:06:47;0.80;;;0.80;;
21613;SDS011;10969;49.550;25.564;2022-09-01T08:09:13;1.77;;;0.80;;
21613;SDS011;10969;49.550;25.564;2022-09-01T08:11:39;1.15;;;0.85;;
21613;SDS011;10969;49.550;25.564;2022-09-01T08:14:06;2.78;;;1.00;;
21613;SDS011;10969;49.550;25.564;2022-09-01T08:16:32;1.98;;;0.80;;
21613;SDS011;10969;49.550;25.564;2022-09-01T08:18:58;0.82;;;0.60;;
21613;SDS011;10969;49.550;25.564;2022-09-01T08:21:25;2.50;;;0.60;;
21613;SDS011;10969;49.550;25.564;2022-09-01T08:23:52;1.00;;;0.60;;
21613;SDS011;10969;49.550;25.564;2022-09-01T08:26:19;0.50;;;0.50;;
21613;SDS011;10969;49.550;25.564;2022-09-01T08:28:46;0.85;;;0.85;;
21613;SDS011;10969;49.550;25.564;2022-09-01T08:31:13;1.85;;;0.60;;
21613;SDS011;10969;49.550;25.564;2022-09-01T08:33:40;0.43;;;0.43;;
21613;SDS011;10969;49.550;25.564;2022-09-01T08:36:08;2.17;;;0.70;;
21613;SDS011;10969;49.550;25.564;2022-09-01T08:38:35;3.03;;;1.02;;
21613;SDS011;10969;49.550;25.564;2022-09-01T08:41:02;0.40;;;0.40;;
21613;SDS011;10969;49.550;25.564;2022-09-01T08:43:42;0.40;;;0.40;;
21613;SDS011;10969;49.550;25.564;2022-09-01T08:48:41;0.82;;;0.82;;
21613;SDS011;10969;49.550;25.564;2022-09-01T08:56:18;1.90;;;1.13;;
21613;SDS011;10969;49.550;25.564;2022-09-01T08:58:44;0.40;;;0.40;;
21613;SDS011;10969;49.550;25.564;2022-09-01T09:01:14;0.52;;;0.52;;
21613;SDS011;10969;49.550;25.564;2022-09-01T09:06:20;5.53;;;0.82;;
21613;SDS011;10969;49.550;25.564;2022-09-01T09:21:45;1.38;;;0.80;;
21613;SDS011;10969;49.550;25.564;2022-09-01T09:24:15;0.65;;;0.63;;
21613;SDS011;10969;49.550;25.564;2022-09-01T09:26:46;0.52;;;0.52;;
21613;SDS011;10969;49.550;25.564;2022-09-01T09:29:12;0.50;;;0.50;;
21613;SDS011;10969;49.550;25.564;2022-09-01T09:31:39;0.40;;;0.40;;
21613;SDS011;10969;49.550;25.564;2022-09-01T09:37:14;3.42;;;0.40;;
21613;SDS011;10969;49.550;25.564;2022-09-01T09:39:41;0.43;;;0.43;;
21613;SDS011;10969;49.550;25.564;2022-09-01T09:42:11;0.20;;;0.20;;
21613;SDS011;10969;49.550;25.564;2022-09-01T09:44:39;0.32;;;0.32;;
21613;SDS011;10969;49.550;25.564;2022-09-01T09:47:07;0.63;;;0.47;;
21613;SDS011;10969;49.550;25.564;2022-09-01T09:49:35;0.40;;;0.25;;
21613;SDS011;10969;49.550;25.564;2022-09-01T09:54:27;0.35;;;0.30;;
21613;SDS011;10969;49.550;25.564;2022-09-01T09:57:11;0.30;;;0.30;;
21613;SDS011;10969;49.550;25.564;2022-09-01T09:59:39;0.38;;;0.38;;
21613;SDS011;10969;49.550;25.564;2022-09-01T10:04:52;0.40;;;0.40;;
21613;SDS011;10969;49.550;25.564;2022-09-01T10:09:53;0.30;;;0.30;;
21613;SDS011;10969;49.550;25.564;2022-09-01T10:12:20;0.60;;;0.55;;
21613;SDS011;10969;49.550;25.564;2022-09-01T10:14:49;0.70;;;0.70;;
21613;SDS011;10969;49.550;25.564;2022-09-01T10:17:18;0.30;;;0.30;;
21613;SDS011;10969;49.550;25.564;2022-09-01T10:19:48;3.75;;;0.50;;
21613;SDS011;10969;49.550;25.564;2022-09-01T10:22:14;0.40;;;0.40;;
21613;SDS011;10969;49.550;25.564;2022-09-01T10:24:40;0.28;;;0.28;;
21613;SDS011;10969;49.550;25.564;2022-09-01T10:27:10;1.25;;;0.40;;
21613;SDS011;10969;49.550;25.564;2022-09-01T10:29:42;0.40;;;0.40;;
21613;SDS011;10969;49.550;25.564;2022-09-01T10:32:11;0.32;;;0.32;;
21613;SDS011;10969;49.550;25.564;2022-09-01T10:34:38;0.30;;;0.30;;
21613;SDS011;10969;49.550;25.564;2022-09-01T10:37:05;0.28;;;0.20;;
21613;SDS011;10969;49.550;25.564;2022-09-01T10:39:32;0.30;;;0.30;;
21613;SDS011;10969;49.550;25.564;2022-09-01T10:41:59;0.85;;;0.50;;
21613;SDS011;10969;49.550;25.564;2022-09-01T10:44:33;3.67;;;0.50;;
21613;SDS011;10969;49.550;25.564;2022-09-01T10:47:00;0.30;;;0.30;;
21613;SDS011;10969;49.550;25.564;2022-09-01T10:51:53;0.20;;;0.20;;
21613;SDS011;10969;49.550;25.564;2022-09-01T10:57:18;1.02;;;0.80;;
21613;SDS011;10969;49.550;25.564;2022-09-01T10:59:46;0.52;;;0.50;;
21613;SDS011;10969;49.550;25.564;2022-09-01T11:02:13;0.40;;;0.40;;
21613;SDS011;10969;49.550;25.564;2022-09-01T11:14:51;0.30;;;0.30;;
21613;SDS011;10969;49.550;25.564;2022-09-01T11:17:25;0.40;;;0.40;;
21613;SDS011;10969;49.550;25.564;2022-09-01T11:33:07;0.85;;;0.65;;
21613;SDS011;10969;49.550;25.564;2022-09-01T11:35:37;0.40;;;0.40;;
21613;SDS011;10969;49.550;25.564;2022-09-01T11:38:04;0.30;;;0.30;;
21613;SDS011;10969;49.550;25.564;2022-09-01T11:40:33;0.50;;;0.50;;
21613;SDS011;10969;49.550;25.564;2022-09-01T11:43:01;0.20;;;0.20;;
21613;SDS011;10969;49.550;25.564;2022-09-01T11:45:30;0.35;;;0.35;;
21613;SDS011;10969;49.550;25.564;2022-09-01T11:47:59;0.20;;;0.20;;
21613;SDS011;10969;49.550;25.564;2022-09-01T11:50:26;0.40;;;0.40;;
21613;SDS011;10969;49.550;25.564;2022-09-01T11:53:02;0.43;;;0.43;;
21613;SDS011;10969;49.550;25.564;2022-09-01T11:55:36;0.40;;;0.40;;
21613;SDS011;10969;49.550;25.564;2022-09-01T11:58:04;0.30;;;0.30;;
21613;SDS011;10969;49.550;25.564;2022-09-01T12:00:35;3.05;;;0.52;;
21613;SDS011;10969;49.550;25.564;2022-09-01T12:03:03;0.52;;;0.40;;
21613;SDS011;10969;49.550;25.564;2022-09-01T12:05:34;0.95;;;0.60;;
21613;SDS011;10969;49.550;25.564;2022-09-01T12:08:05;0.30;;;0.30;;
21613;SDS011;10969;49.550;25.564;2022-09-01T12:10:39;0.70;;;0.45;;
21613;SDS011;10969;49.550;25.564;2022-09-01T12:13:06;0.43;;;0.28;;
21613;SDS011;10969;49.550;25.564;2022-09-01T12:15:33;2.22;;;0.50;;
21613;SDS011;10969;49.550;25.564;2022-09-01T12:18:36;0.55;;;0.55;;
21613;SDS011;10969;49.550;25.564;2022-09-01T12:20:56;0.40;;;0.40;;
21613;SDS011;10969;49.550;25.564;2022-09-01T12:25:49;0.20;;;0.20;;
21613;SDS011;10969;49.550;25.564;2022-09-01T12:28:15;1.20;;;0.85;;
21613;SDS011;10969;49.550;25.564;2022-09-01T12:30:41;0.40;;;0.40;;
21613;SDS011;10969;49.550;25.564;2022-09-01T12:33:09;0.47;;;0.40;;
21613;SDS011;10969;49.550;25.564;2022-09-01T12:35:36;1.10;;;0.85;;
21613;SDS011;10969;49.550;25.564;2022-09-01T12:43:09;0.40;;;0.40;;
21613;SDS011;10969;49.550;25.564;2022-09-01T12:45:40;0.57;;;0.57;;
21613;SDS011;10969;49.550;25.564;2022-09-01T12:48:06;0.30;;;0.30;;
21613;SDS011;10969;49.550;25.564;2022-09-01T12:50:48;1.02;;;0.45;;
21613;SDS011;10969;49.550;25.564;2022-09-01T12:53:16;0.70;;;0.70;;
21613;SDS011;10969;49.550;25.564;2022-09-01T12:55:52;0.30;;;0.30;;
21613;SDS011;10969;49.550;25.564;2022-09-01T12:58:20;0.45;;;0.32;;
21613;SDS011;10969;49.550;25.564;2022-09-01T13:01:05;0.55;;;0.55;;
21613;SDS011;10969;49.550;25.564;2022-09-01T13:03:33;1.17;;;0.70;;
21613;SDS011;10969;49.550;25.564;2022-09-01T13:06:00;1.05;;;0.68;;
21613;SDS011;10969;49.550;25.564;2022-09-01T13:08:28;1.40;;;0.52;;
21613;SDS011;10969;49.550;25.564;2022-09-01T13:10:56;0.52;;;0.52;;
21613;SDS011;10969;49.550;25.564;2022-09-01T13:13:23;0.30;;;0.30;;
21613;SDS011;10969;49.550;25.564;2022-09-01T13:15:51;1.08;;;0.80;;
21613;SDS011;10969;49.550;25.564;2022-09-01T13:18:18;0.40;;;0.40;;
21613;SDS011;10969;49.550;25.564;2022-09-01T13:20:45;0.30;;;0.30;;
21613;SDS011;10969;49.550;25.564;2022-09-01T13:23:11;0.73;;;0.40;;
21613;SDS011;10969;49.550;25.564;2022-09-01T13:25:38;0.40;;;0.40;;
21613;SDS011;10969;49.550;25.564;2022-09-01T13:28:04;1.95;;;0.60;;
21613;SDS011;10969;49.550;25.564;2022-09-01T13:30:31;1.80;;;0.60;;
21613;SDS011;10969;49.550;25.564;2022-09-01T13:32:58;0.28;;;0.28;;
21613;SDS011;10969;49.550;25.564;2022-09-01T13:35:24;0.47;;;0.47;;
21613;SDS011;10969;49.550;25.564;2022-09-01T13:37:50;0.30;;;0.30;;
21613;SDS011;10969;49.550;25.564;2022-09-01T13:40:19;0.43;;;0.43;;
21613;SDS011;10969;49.550;25.564;2022-09-01T13:42:46;0.30;;;0.30;;
21613;SDS011;10969;49.550;25.564;2022-09-01T13:45:13;0.30;;;0.30;;
21613;SDS011;10969;49.550;25.564;2022-09-01T13:47:42;0.50;;;0.45;;
21613;SDS011;10969;49.550;25.564;2022-09-01T13:50:09;0.57;;;0.57;;
21613;SDS011;10969;49.550;25.564;2022-09-01T13:52:41;0.43;;;0.38;;
21613;SDS011;10969;49.550;25.564;2022-09-01T13:55:10;0.47;;;0.47;;
21613;SDS011;10969;49.550;25.564;2022-09-01T13:57:37;0.52;;;0.52;;
21613;SDS011;10969;49.550;25.564;2022-09-01T14:00:10;0.50;;;0.50;;
21613;SDS011;10969;49.550;25.564;2022-09-01T14:02:40;0.40;;;0.40;;
21613;SDS011;10969;49.550;25.564;2022-09-01T14:05:07;0.50;;;0.50;;
21613;SDS011;10969;49.550;25.564;2022-09-01T14:07:33;1.75;;;1.25;;
21613;SDS011;10969;49.550;25.564;2022-09-01T14:09:59;0.55;;;0.32;;
21613;SDS011;10969;49.550;25.564;2022-09-01T14:12:26;0.65;;;0.60;;
21613;SDS011;10969;49.550;25.564;2022-09-01T14:14:54;0.40;;;0.40;;
21613;SDS011;10969;49.550;25.564;2022-09-01T14:17:20;0.40;;;0.38;;
21613;SDS011;10969;49.550;25.564;2022-09-01T14:19:49;0.45;;;0.45;;
21613;SDS011;10969;49.550;25.564;2022-09-01T14:22:15;0.35;;;0.35;;
21613;SDS011;10969;49.550;25.564;2022-09-01T14:24:41;0.68;;;0.68;;
21613;SDS011;10969;49.550;25.564;2022-09-01T14:27:08;0.98;;;0.38;;
21613;SDS011;10969;49.550;25.564;2022-09-01T14:29:34;0.38;;;0.38;;
21613;SDS011;10969;49.550;25.564;2022-09-01T14:32:00;0.32;;;0.32;;
21613;SDS011;10969;49.550;25.564;2022-09-01T14:34:26;0.40;;;0.40;;
21613;SDS011;10969;49.550;25.564;2022-09-01T14:36:54;0.63;;;0.38;;
21613;SDS011;10969;49.550;25.564;2022-09-01T14:39:21;0.65;;;0.65;;
21613;SDS011;10969;49.550;25.564;2022-09-01T14:41:47;0.63;;;0.50;;
21613;SDS011;10969;49.550;25.564;2022-09-01T14:44:13;0.40;;;0.40;;
21613;SDS011;10969;49.550;25.564;2022-09-01T14:46:39;0.57;;;0.57;;
21613;SDS011;10969;49.550;25.564;2022-09-01T14:49:05;0.95;;;0.85;;
21613;SDS011;10969;49.550;25.564;2022-09-01T14:51:31;1.90;;;0.45;;
21613;SDS011;10969;49.550;25.564;2022-09-01T14:53:57;0.70;;;0.70;;
21613;SDS011;10969;49.550;25.564;2022-09-01T14:56:24;0.40;;;0.40;;
21613;SDS011;10969;49.550;25.564;2022-09-01T14:58:51;4.18;;;1.48;;
21613;SDS011;10969;49.550;25.564;2022-09-01T15:01:23;0.40;;;0.40;;
21613;SDS011;10969;49.550;25.564;2022-09-01T15:03:50;0.40;;;0.40;;
21613;SDS011;10969;49.550;25.564;2022-09-01T15:06:16;1.65;;;0.90;;
21613;SDS011;10969;49.550;25.564;2022-09-01T15:08:43;0.38;;;0.38;;
21613;SDS011;10969;49.550;25.564;2022-09-01T15:11:13;0.40;;;0.40;;
21613;SDS011;10969;49.550;25.564;2022-09-01T15:13:40;1.38;;;0.70;;
21613;SDS011;10969;49.550;25.564;2022-09-01T15:16:17;2.70;;;0.80;;
21613;SDS011;10969;49.550;25.564;2022-09-01T15:18:43;1.55;;;0.85;;
21613;SDS011;10969;49.550;25.564;2022-09-01T15:21:22;0.43;;;0.43;;
21613;SDS011;10969;49.550;25.564;2022-09-01T15:23:49;0.40;;;0.40;;
21613;SDS011;10969;49.550;25.564;2022-09-01T15:26:16;1.08;;;0.55;;
21613;SDS011;10969;49.550;25.564;2022-09-01T15:28:43;0.22;;;0.22;;
21613;SDS011;10969;49.550;25.564;2022-09-01T15:31:09;0.40;;;0.40;;
21613;SDS011;10969;49.550;25.564;2022-09-01T15:33:36;1.42;;;0.60;;
21613;SDS011;10969;49.550;25.564;2022-09-01T15:36:02;0.47;;;0.47;;
21613;SDS011;10969;49.550;25.564;2022-09-01T15:38:28;0.28;;;0.28;;
21613;SDS011;10969;49.550;25.564;2022-09-01T15:40:54;0.38;;;0.38;;
21613;SDS011;10969;49.550;25.564;2022-09-01T15:43:21;0.52;;;0.50;;
21613;SDS011;10969;49.550;25.564;2022-09-01T15:45:47;1.35;;;0.88;;
21613;SDS011;10969;49.550;25.564;2022-09-01T15:48:13;0.52;;;0.52;;
21613;SDS011;10969;49.550;25.564;2022-09-01T15:50:39;1.00;;;0.70;;
21613;SDS011;10969;49.550;25.564;2022-09-01T15:53:06;0.40;;;0.40;;
21613;SDS011;10969;49.550;25.564;2022-09-01T15:58:07;0.40;;;0.40;;
21613;SDS011;10969;49.550;25.564;2022-09-01T16:00:34;2.58;;;0.70;;
21613;SDS011;10969;49.550;25.564;2022-09-01T16:03:00;2.75;;;0.70;;
21613;SDS011;10969;49.550;25.564;2022-09-01T16:05:27;1.42;;;1.33;;